Time;durP1;ratioP1;P1;durP2;ratioP2;P2;SDS_P1;SDS_P2;PMS_P1;PMS_P2;Temp;Humidity;BMP_temperature;BMP_pressure;BME280_temperature;BME280_humidity;BME280_pressure;Samples;Min_cycle;Max_cycle;Signal;HPM_P1;HPM_P2
2023/10/15 00:00:04;;;;;;;10.40;2.40;;;;;;;8.69;96.97;100006.80;223737;1263;139898;-85
2023/10/15 00:05:59;;;;;;;14.10;2.20;;;;;;;8.67;96.86;100003.70;224371;1263;138737;-84
2023/10/15 00:11:58;;;;;;;;;;;;;;;;;;;;;
2023/10/15 00:18:00;;;;;;;10.40;1.80;;;;;;;8.62;97.40;100011.41;224307;1263;138626;-86
2023/10/15 00:23:53;;;;;;;9.20;1.90;;;;;;;8.60;97.66;100013.65;223926;1263;140597;-85
2023/10/15 00:29:19;;;;;;;8.70;2.00;;;;;;;8.57;97.44;100009.92;224349;1263;138590;-85
2023/10/15 00:35:08;;;;;;;7.90;1.60;;;;;;;8.55;98.09;100015.93;224404;1263;138500;-83
2023/10/15 00:40:52;;;;;;;;;;;;;;;;;;;;;
2023/10/15 00:47:18;;;;;;;6.50;1.50;;;;;;;8.50;97.91;100009.77;224347;1263;139145;-85
2023/10/15 00:52:57;;;;;;;9.10;2.10;;;;;;;8.48;97.95;100006.15;223771;1263;139521;-84
2023/10/15 01:05:06;;;;;;;10.30;1.90;;;;;;;8.40;98.46;100010.89;223766;1263;139514;-86
2023/10/15 01:10:53;;;;;;;12.00;3.10;;;;;;;8.35;98.66;100006.59;223850;1263;139996;-85
2023/10/15 01:16:46;;;;;;;;;;;;;;;;;;;;;
2023/10/15 01:22:39;;;;;;;7.90;1.60;;;;;;;8.23;99.60;100012.16;223699;1263;139889;-85
2023/10/15 01:28:38;;;;;;;6.00;1.90;;;;;;;8.18;99.97;100014.63;224263;1263;138404;-84
2023/10/15 01:34:35;;;;;;;;;;;;;;;;;;;;;
2023/10/15 01:46:23;;;;;;;;;;;;;;;;;;;;;
2023/10/15 01:52:12;;;;;;;7.10;1.90;;;;;;;7.99;100.00;100016.40;223717;1263;140896;-85
2023/10/15 01:58:00;;;;;;;8.00;2.30;;;;;;;7.96;100.00;100017.30;224406;1263;139244;-85
2023/10/15 02:03:51;;;;;;;;;;;;;;;;;;;;;
2023/10/15 02:09:52;;;;;;;7.70;2.10;;;;;;;7.90;100.00;100021.91;224266;1263;139435;-84
2023/10/15 02:16:18;;;;;;;7.80;1.90;;;;;;;7.87;100.00;100022.72;224391;1263;138561;-85
2023/10/15 02:21:53;;;;;;;15.30;2.50;;;;;;;7.84;100.00;100021.65;223746;1263;139812;-84
2023/10/15 02:27:38;;;;;;;;;;;;;;;;;;;;;
2023/10/15 02:33:45;;;;;;;11.10;2.20;;;;;;;7.76;100.00;100024.27;223863;1263;140091;-85
2023/10/15 02:39:50;;;;;;;8.10;2.00;;;;;;;7.73;100.00;100020.23;224252;1263;138800;-85
2023/10/15 02:45:47;;;;;;;12.30;2.60;;;;;;;7.69;100.00;100023.76;224315;1263;138771;-85
2023/10/15 02:51:47;;;;;;;;;;;;;;;;;;;;;
2023/10/15 02:57:42;;;;;;;8.90;2.60;;;;;;;7.64;100.00;100017.58;224388;1263;139215;-86
2023/10/15 03:03:48;;;;;;;7.00;1.90;;;;;;;7.62;100.00;100016.61;223789;1263;140668;-85
2023/10/15 03:09:25;;;;;;;;;;;;;;;;;;;;;
2023/10/15 03:15:17;;;;;;;14.70;2.40;;;;;;;7.59;100.00;100022.04;224331;1263;248637;-84
2023/10/15 03:27:27;;;;;;;;;;;;;;;;;;;;;
2023/10/15 03:33:21;;;;;;;6.50;2.40;;;;;;;7.50;100.00;100033.08;223936;1265;140533;-84
2023/10/15 03:39:14;;;;;;;16.80;3.00;;;;;;;7.48;100.00;100041.01;224471;1263;106944;-84
2023/10/15 03:45:09;;;;;;;10.10;2.10;;;;;;;7.48;100.00;100034.14;224109;1263;243046;-85
2023/10/15 03:50:55;;;;;;;17.80;3.80;;;;;;;7.51;100.00;100029.89;223816;1264;140028;-83
2023/10/15 03:56:43;;;;;;;11.70;2.20;;;;;;;7.55;100.00;100027.91;224443;1263;107658;-86
2023/10/15 04:08:25;;;;;;;11.00;2.10;;;;;;;7.63;100.00;100027.96;224418;1265;138557;-84
2023/10/15 04:14:43;;;;;;;8.40;2.00;;;;;;;7.66;100.00;100027.33;223972;1263;139848;-84
2023/10/15 04:20:09;;;;;;;;;;;;;;;;;;;;;
2023/10/15 04:25:23;;;;;;;11.50;2.20;;;;;;;7.73;99.87;100011.86;224382;1263;138403;-85
2023/10/15 04:31:33;;;;;;;12.40;2.80;;;;;;;7.76;99.72;100009.88;223642;1263;140024;-84
2023/10/15 04:37:36;;;;;;;7.20;1.80;;;;;;;7.78;99.60;100012.17;224245;1265;139193;-86
2023/10/15 04:43:25;;;;;;;12.40;2.40;;;;;;;7.82;99.50;100011.52;223747;1263;139573;-85
2023/10/15 04:48:27;;;;;;;8.90;2.40;;;;;;;7.85;99.40;100011.26;224136;1263;138605;-85
2023/10/15 04:54:26;;;;;;;15.80;2.00;;;;;;;7.86;99.12;100015.11;223759;1263;139310;-85
2023/10/15 05:00:07;;;;;;;;;;;;;;;;;;;;;
2023/10/15 05:05:55;;;;;;;;;;;;;;;;;;;;;
2023/10/15 05:11:49;;;;;;;7.90;2.10;;;;;;;7.88;98.97;100026.02;224216;1263;139815;-86
2023/10/15 05:17:12;;;;;;;;;;;;;;;;;;;;;
2023/10/15 05:22:48;;;;;;;13.50;2.30;;;;;;;7.90;98.33;100038.96;223751;1263;139913;-83
2023/10/15 05:28:26;;;;;;;20.90;3.70;;;;;;;7.92;98.26;100052.46;224312;1263;138783;-84
2023/10/15 05:33:31;;;;;;;14.10;2.00;;;;;;;7.95;97.72;100059.48;223804;1263;228141;-84
2023/10/15 05:39:15;;;;;;;;;;;;;;;;;;;;;
2023/10/15 05:44:56;;;;;;;10.80;1.60;;;;;;;7.97;97.32;100064.84;223958;1263;139640;-84
2023/10/15 05:50:47;;;;;;;;;;;;;;;;;;;;;
2023/10/15 05:56:35;;;;;;;;;;;;;;;;;;;;;
2023/10/15 06:02:25;;;;;;;;;;;;;;;;;;;;;
2023/10/15 06:13:46;;;;;;;10.40;1.90;;;;;;;8.05;96.27;100087.58;223653;1263;139778;-84
2023/10/15 06:19:03;;;;;;;;;;;;;;;;;;;;;
2023/10/15 06:24:31;;;;;;;11.50;2.50;;;;;;;8.02;96.40;100093.96;223621;1263;139326;-83
2023/10/15 06:30:14;;;;;;;12.10;2.00;;;;;;;8.02;96.38;100102.81;223778;1263;139901;-85
2023/10/15 06:35:57;;;;;;;8.10;1.60;;;;;;;8.03;96.25;100108.77;224216;1263;138787;-84
2023/10/15 06:41:51;;;;;;;;;;;;;;;;;;;;;
2023/10/15 06:47:26;;;;;;;12.50;2.20;;;;;;;8.15;96.15;100105.59;224101;1266;138457;-84
2023/10/15 06:52:38;;;;;;;;;;;;;;;;;;;;;
2023/10/15 06:58:33;;;;;;;;;;;;;;;;;;;;;
2023/10/15 07:04:26;;;;;;;;;;;;;;;;;;;;;
2023/10/15 07:10:12;;;;;;;12.50;2.10;;;;;;;8.44;95.19;100121.10;223648;1266;140719;-84
2023/10/15 07:15:56;;;;;;;14.70;2.20;;;;;;;8.53;94.89;100120.53;224141;1264;139295;-82
2023/10/15 07:21:05;;;;;;;12.20;2.10;;;;;;;8.58;95.01;100140.28;223766;1267;139495;-82
2023/10/15 07:26:47;;;;;;;10.40;2.10;;;;;;;8.68;94.69;100146.30;224113;1265;107776;-82
2023/10/15 07:32:30;;;;;;;9.50;1.80;;;;;;;8.75;93.98;100151.17;223659;1267;139638;-83
2023/10/15 07:38:11;;;;;;;10.40;2.10;;;;;;;8.76;93.38;100150.41;224221;1264;138407;-82
2023/10/15 07:43:40;;;;;;;13.10;2.30;;;;;;;8.85;93.30;100151.30;223717;1263;139645;-80
2023/10/15 07:48:53;;;;;;;;;;;;;;;;;;;;;
2023/10/15 07:54:37;;;;;;;12.60;2.50;;;;;;;9.09;91.97;100155.79;223620;1267;139615;-83
2023/10/15 08:00:02;;;;;;;11.70;2.90;;;;;;;9.13;91.08;100169.40;223625;1265;139681;-82
2023/10/15 08:05:44;;;;;;;;;;;;;;;;;;;;;
2023/10/15 08:11:14;;;;;;;10.20;2.10;;;;;;;9.34;90.27;100176.64;223718;1267;139843;-82
2023/10/15 08:16:33;;;;;;;;;;;;;;;;;;;;;
2023/10/15 08:21:53;;;;;;;;;;;;;;;;;;;;;
2023/10/15 08:27:26;;;;;;;11.00;2.00;;;;;;;9.68;89.68;100188.57;224303;1267;106835;-83
2023/10/15 08:32:34;;;;;;;8.10;1.70;;;;;;;9.73;88.07;100192.87;223754;1267;140034;-83
2023/10/15 08:38:09;;;;;;;;;;;;;;;;;;;;;
2023/10/15 08:43:23;;;;;;;8.20;2.20;;;;;;;9.81;87.35;100196.87;223829;1263;141219;-84
2023/10/15 08:48:44;;;;;;;;;;;;;;;;;;;;;
2023/10/15 08:54:29;;;;;;;;;;;;;;;;;;;;;
2023/10/15 08:59:44;;;;;;;10.50;2.40;;;;;;;10.06;86.39;100192.27;223623;1263;139716;-86
2023/10/15 09:05:19;;;;;;;;;;;;;;;;;;;;;
2023/10/15 09:10:42;;;;;;;8.40;2.20;;;;;;;10.15;85.19;100187.66;223558;1263;140146;-85
2023/10/15 09:16:13;;;;;;;;;;;;;;;;;;;;;
2023/10/15 09:22:05;;;;;;;11.10;2.40;;;;;;;11.06;85.01;100183.09;223434;1265;140402;-84
2023/10/15 09:27:28;;;;;;;15.40;3.60;;;;;;;11.75;83.96;100185.27;224207;1266;95866;-86
2023/10/15 09:32:49;;;;;;;11.30;2.50;;;;;;;12.28;80.49;100205.30;223752;1267;140328;-84
2023/10/15 09:38:37;;;;;;;9.50;2.00;;;;;;;12.41;77.80;100207.51;224549;1263;138912;-85
2023/10/15 09:44:35;;;;;;;;;;;;;;;;;;;;;
2023/10/15 09:50:19;;;;;;;;;;;;;;;;;;;;;
2023/10/15 09:55:55;;;;;;;8.70;2.20;;;;;;;12.10;77.24;100228.45;224233;1263;139107;-82
2023/10/15 10:01:31;;;;;;;13.20;2.10;;;;;;;12.26;77.24;100232.10;223643;1266;140393;-84
2023/10/15 10:08:05;;;;;;;9.80;2.10;;;;;;;12.12;75.85;100226.80;224275;1264;139247;-82
2023/10/15 10:13:50;;;;;;;9.20;2.30;;;;;;;12.09;75.78;100229.62;223678;1263;139913;-83
2023/10/15 10:19:32;;;;;;;15.00;2.30;;;;;;;12.03;75.73;100230.02;224180;1266;139411;-82
2023/10/15 10:25:29;;;;;;;12.30;2.20;;;;;;;11.81;73.72;100217.20;223931;1263;365567;-81
2023/10/15 10:31:30;;;;;;;8.40;2.70;;;;;;;11.92;74.54;100210.45;223718;1263;140605;-85
2023/10/15 10:37:01;;;;;;;13.20;2.80;;;;;;;12.16;73.97;100214.75;224379;1263;139233;-82
2023/10/15 10:42:38;;;;;;;12.10;2.40;;;;;;;12.43;74.07;100212.23;223677;1267;140174;-83
2023/10/15 10:48:14;;;;;;;12.50;2.10;;;;;;;12.74;73.38;100209.14;224266;1266;139522;-84
2023/10/15 10:53:45;;;;;;;6.10;1.90;;;;;;;12.96;72.53;100204.87;223723;1264;140036;-84
2023/10/15 10:59:18;;;;;;;8.50;2.20;;;;;;;13.07;71.17;100198.70;224146;1264;138806;-85
2023/10/15 11:04:54;;;;;;;12.80;2.00;;;;;;;13.13;70.92;100194.19;223825;1267;140132;-84
2023/10/15 11:10:31;;;;;;;;;;;;;;;;;;;;;
2023/10/15 11:16:03;;;;;;;8.10;1.70;;;;;;;13.17;71.78;100185.08;224165;1264;138873;-84
2023/10/15 11:21:27;;;;;;;11.10;2.40;;;;;;;13.30;71.00;100189.92;223861;1264;139378;-85
2023/10/15 11:26:54;;;;;;;7.00;1.60;;;;;;;13.32;69.24;100186.68;224687;1266;111299;-83
2023/10/15 11:32:34;;;;;;;9.00;1.60;;;;;;;13.20;68.59;100183.58;223712;1263;139088;-83
2023/10/15 11:37:50;;;;;;;;;;;;;;;;;;;;;
2023/10/15 11:43:20;;;;;;;8.40;2.00;;;;;;;13.20;68.40;100186.97;223653;1264;139262;-83
2023/10/15 11:48:30;;;;;;;15.40;5.40;;;;;;;13.06;69.08;100186.46;224116;1263;138252;-83
2023/10/15 11:54:21;;;;;;;;;;;;;;;;;;;;;
2023/10/15 11:59:36;;;;;;;13.10;2.30;;;;;;;13.08;67.27;100187.01;223737;1266;139841;-85
2023/10/15 12:05:09;;;;;;;10.70;2.00;;;;;;;12.85;67.27;100185.85;224190;1264;138882;-84
2023/10/15 12:11:02;;;;;;;12.30;2.40;;;;;;;12.68;67.20;100180.52;223649;1263;139703;-84
2023/10/15 12:16:39;;;;;;;;;;;;;;;;;;;;;
2023/10/15 12:21:47;;;;;;;8.50;1.70;;;;;;;12.56;67.82;100180.06;223931;1264;139410;-84
2023/10/15 12:27:28;;;;;;;8.50;1.80;;;;;;;12.65;68.82;100174.84;224146;1264;105779;-82
2023/10/15 12:32:49;;;;;;;7.80;1.90;;;;;;;12.72;67.81;100172.23;223643;1264;139705;-83
2023/10/15 12:38:32;;;;;;;7.30;1.70;;;;;;;12.68;67.28;100169.95;224305;1263;138063;-83
2023/10/15 12:44:26;;;;;;;;;;;;;;;;;;;;;
2023/10/15 12:50:07;;;;;;;4.80;1.70;;;;;;;12.72;67.07;100162.68;223611;1264;139400;-83
2023/10/15 12:55:47;;;;;;;;;;;;;;;;;;;;;
2023/10/15 13:01:10;;;;;;;6.40;1.50;;;;;;;12.36;66.42;100158.30;223785;1264;139312;-82
2023/10/15 13:06:55;;;;;;;6.90;1.70;;;;;;;12.17;68.17;100158.62;224171;1264;138226;-84
2023/10/15 13:12:25;;;;;;;5.40;1.50;;;;;;;12.10;67.95;100163.83;223674;1264;140028;-82
2023/10/15 13:17:37;;;;;;;9.10;1.90;;;;;;;12.13;67.78;100162.71;224666;1264;138337;-84
2023/10/15 13:23:19;;;;;;;8.30;2.00;;;;;;;12.09;68.06;100160.28;223511;1263;139937;-82
2023/10/15 13:28:51;;;;;;;;;;;;;;;;;;;;;
2023/10/15 13:34:20;;;;;;;10.50;2.10;;;;;;;11.78;67.59;100155.66;223622;1264;139279;-82
2023/10/15 13:39:28;;;;;;;6.50;1.70;;;;;;;11.60;67.38;100150.18;223898;1263;139819;-82
2023/10/15 13:44:41;;;;;;;14.10;2.50;;;;;;;11.44;69.07;100146.10;224437;1264;95963;-83
2023/10/15 13:50:23;;;;;;;7.50;2.00;;;;;;;11.40;69.87;100143.10;223897;1263;139382;-83
2023/10/15 13:56:01;;;;;;;7.30;1.80;;;;;;;11.38;69.64;100135.23;224163;1263;138205;-82
2023/10/15 14:02:06;;;;;;;5.90;2.00;;;;;;;11.36;69.40;100141.74;223864;1264;140648;-84
2023/10/15 14:07:16;;;;;;;10.00;2.30;;;;;;;11.31;69.45;100150.87;224291;1263;138070;-85
2023/10/15 14:13:01;;;;;;;12.20;2.30;;;;;;;11.29;69.98;100157.23;223915;1264;140305;-83
2023/10/15 14:18:51;;;;;;;7.10;2.20;;;;;;;11.26;70.64;100158.32;224303;1263;138224;-84
2023/10/15 14:24:26;;;;;;;7.60;1.90;;;;;;;11.20;71.18;100166.88;223813;1263;139806;-84
2023/10/15 14:30:23;;;;;;;8.20;1.90;;;;;;;11.08;72.22;100172.40;223809;1263;139189;-84
2023/10/15 14:36:02;;;;;;;;;;;;;;;;;;;;;
2023/10/15 14:42:05;;;;;;;7.10;2.30;;;;;;;10.84;73.96;100169.21;223695;1267;139318;-84
2023/10/15 14:47:33;;;;;;;9.30;2.20;;;;;;;10.72;74.09;100176.06;224213;1263;138367;-84
2023/10/15 14:52:56;;;;;;;9.60;2.90;;;;;;;10.60;73.83;100179.04;223660;1263;141024;-85
2023/10/15 14:58:54;;;;;;;;;;;;;;;;;;;;;
2023/10/15 15:04:35;;;;;;;;;;;;;;;;;;;;;
2023/10/15 15:10:06;;;;;;;;;;;;;;;;;;;;;
2023/10/15 15:15:58;;;;;;;10.60;2.40;;;;;;;10.14;74.11;100172.48;224321;1263;95919;-85
2023/10/15 15:21:53;;;;;;;10.80;2.60;;;;;;;10.06;73.24;100169.25;223899;1263;139971;-84
2023/10/15 15:27:43;;;;;;;;;;;;;;;;;;;;;
2023/10/15 15:33:11;;;;;;;13.00;2.80;;;;;;;9.84;73.42;100178.77;223730;1263;139303;-84
2023/10/15 15:38:18;;;;;;;8.20;2.90;;;;;;;9.72;73.92;100185.54;224149;1262;139038;-82
2023/10/15 15:44:29;;;;;;;11.80;4.00;;;;;;;9.61;74.24;100188.19;223650;1263;140238;-83
2023/10/15 15:49:34;;;;;;;9.90;2.70;;;;;;;9.52;74.80;100196.95;224250;1263;138752;-83
2023/10/15 15:54:57;;;;;;;10.00;2.80;;;;;;;9.43;75.07;100206.40;224210;1263;367495;-86
2023/10/15 16:00:17;;;;;;;;;;;;;;;;;;;;;
2023/10/15 16:06:07;;;;;;;14.80;3.60;;;;;;;9.25;75.91;100227.22;224143;1263;138513;-85
2023/10/15 16:11:51;;;;;;;11.20;3.90;;;;;;;9.14;76.79;100241.19;223499;1264;140086;-84
2023/10/15 16:17:03;;;;;;;14.70;4.40;;;;;;;9.03;77.72;100249.98;224259;1263;139074;-83
2023/10/15 16:22:55;;;;;;;10.60;2.70;;;;;;;8.94;78.07;100258.31;223682;1262;139932;-85
2023/10/15 16:27:58;;;;;;;10.80;3.50;;;;;;;8.84;78.74;100258.86;224118;1263;139299;-83
2023/10/15 16:33:30;;;;;;;;;;;;;;;;;;;;;
2023/10/15 16:38:49;;;;;;;;;;;;;;;;;;;;;
2023/10/15 16:44:06;;;;;;;9.20;2.60;;;;;;;8.56;80.83;100279.42;223871;1263;139656;-84
2023/10/15 16:49:56;;;;;;;8.50;3.20;;;;;;;8.48;81.32;100285.33;224307;1263;138372;-83
2023/10/15 16:55:28;;;;;;;;;;;;;;;;;;;;;
2023/10/15 17:01:04;;;;;;;12.00;4.40;;;;;;;8.31;83.04;100291.06;223850;1263;140955;-86
2023/10/15 17:07:06;;;;;;;8.90;3.00;;;;;;;8.22;83.68;100302.89;224291;1265;139142;-85
2023/10/15 17:12:51;;;;;;;10.50;2.60;;;;;;;8.14;84.86;100311.86;223818;1263;139514;-84
2023/10/15 17:18:24;;;;;;;6.30;1.80;;;;;;;8.05;85.85;100312.71;224398;1263;138570;-84
2023/10/15 17:24:14;;;;;;;;;;;;;;;;;;;;;
2023/10/15 17:30:09;;;;;;;9.90;2.90;;;;;;;7.89;87.68;100308.09;223686;1263;140106;-83
2023/10/15 17:35:33;;;;;;;8.20;2.60;;;;;;;7.80;88.36;100304.08;224287;1264;138706;-84
2023/10/15 17:40:57;;;;;;;12.10;3.60;;;;;;;7.73;88.87;100303.08;223926;1263;139929;-84
2023/10/15 17:46:57;;;;;;;12.60;3.60;;;;;;;7.67;89.47;100304.91;224671;1264;139025;-87
2023/10/15 17:51:57;;;;;;;7.60;3.20;;;;;;;7.61;89.97;100310.33;223767;1265;140345;-84
2023/10/15 17:57:11;;;;;;;;;;;;;;;;;;;;;
2023/10/15 18:02:12;;;;;;;10.70;3.40;;;;;;;7.52;90.64;100313.03;223826;1263;139869;-84
2023/10/15 18:07:23;;;;;;;8.70;3.10;;;;;;;7.48;91.16;100319.04;224235;1263;138575;-82
2023/10/15 18:12:37;;;;;;;8.30;2.60;;;;;;;7.45;91.23;100319.29;223363;1263;141083;-85
2023/10/15 18:18:40;;;;;;;9.10;2.30;;;;;;;7.40;91.62;100332.64;224411;1263;138475;-85
2023/10/15 18:24:24;;;;;;;8.40;3.60;;;;;;;7.37;91.79;100340.33;223804;1264;139394;-84
2023/10/15 18:29:36;;;;;;;8.30;2.90;;;;;;;7.38;92.27;100347.09;223766;1263;139877;-84
2023/10/15 18:35:26;;;;;;;;;;;;;;;;;;;;;
2023/10/15 18:41:11;;;;;;;11.70;3.40;;;;;;;7.48;92.37;100358.41;224244;1263;138415;-84
2023/10/15 18:46:50;;;;;;;5.10;1.70;;;;;;;7.54;92.42;100358.93;224324;1263;138622;-83
2023/10/15 18:52:15;;;;;;;11.60;2.30;;;;;;;7.61;91.65;100361.48;223717;1263;139870;-85
2023/10/15 18:57:57;;;;;;;6.80;2.20;;;;;;;7.64;91.58;100362.34;224435;1263;106102;-84
2023/10/15 19:03:48;;;;;;;;;;;;;;;;;;;;;
2023/10/15 19:09:23;;;;;;;8.30;2.50;;;;;;;7.67;91.15;100370.88;224318;1263;138118;-85
2023/10/15 19:14:49;;;;;;;11.10;2.30;;;;;;;7.67;90.74;100367.19;224264;1265;240789;-83
2023/10/15 19:20:25;;;;;;;7.40;1.80;;;;;;;7.68;90.63;100369.02;223637;1263;139863;-83
2023/10/15 19:26:08;;;;;;;8.50;2.20;;;;;;;7.67;90.57;100366.89;224341;1264;138541;-86
2023/10/15 19:32:10;;;;;;;8.30;2.30;;;;;;;7.66;90.87;100377.42;224031;1265;139684;-84
2023/10/15 19:38:03;;;;;;;;;;;;;;;;;;;;;
2023/10/15 19:43:06;;;;;;;7.50;2.10;;;;;;;7.54;90.69;100378.27;223704;1264;139526;-84
2023/10/15 19:48:45;;;;;;;9.10;3.30;;;;;;;7.48;90.79;100381.73;224395;1263;138645;-84
2023/10/15 19:54:16;;;;;;;;;;;;;;;;;;;;;
2023/10/15 19:59:45;;;;;;;9.00;2.50;;;;;;;7.32;91.01;100393.95;223821;1263;140673;-82
2023/10/15 20:05:09;;;;;;;6.60;2.00;;;;;;;7.25;91.14;100403.48;224314;1264;138554;-85
2023/10/15 20:11:01;;;;;;;11.60;2.90;;;;;;;7.18;91.31;100402.52;223799;1263;139539;-84
2023/10/15 20:16:01;;;;;;;5.00;1.70;;;;;;;7.10;91.56;100404.05;224192;1263;138731;-85
2023/10/15 20:21:04;;;;;;;10.40;2.30;;;;;;;7.06;91.67;100405.05;223822;1263;140390;-85
2023/10/15 20:26:25;;;;;;;9.40;2.10;;;;;;;7.03;91.86;100405.92;224774;1263;139395;-82
2023/10/15 20:32:10;;;;;;;7.70;2.10;;;;;;;6.98;91.81;100406.40;223792;1264;139591;-82
2023/10/15 20:37:51;;;;;;;;;;;;;;;;;;;;;
2023/10/15 20:43:53;;;;;;;7.50;2.10;;;;;;;6.89;92.34;100425.71;223781;1263;139601;-84
2023/10/15 20:48:55;;;;;;;4.50;1.60;;;;;;;6.83;92.52;100429.16;224154;1264;138471;-82
2023/10/15 20:54:46;;;;;;;;;;;;;;;;;;;;;
2023/10/15 21:00:31;;;;;;;;;;;;;;;;;;;;;
2023/10/15 21:06:23;;;;;;;9.60;2.60;;;;;;;6.63;93.68;100435.20;224307;1263;138418;-83
2023/10/15 21:12:04;;;;;;;;;;;;;;;;;;;;;
2023/10/15 21:18:04;;;;;;;7.60;2.30;;;;;;;6.53;94.59;100439.77;224597;1263;138476;-83
2023/10/15 21:23:55;;;;;;;11.50;2.60;;;;;;;6.50;94.75;100443.89;223762;1263;140669;-82
2023/10/15 21:29:53;;;;;;;;;;;;;;;;;;;;;
2023/10/15 21:35:48;;;;;;;;;;;;;;;;;;;;;
2023/10/15 21:41:56;;;;;;;;;;;;;;;;;;;;;
2023/10/15 21:48:00;;;;;;;9.10;2.40;;;;;;;6.41;96.39;100443.10;224189;1263;139041;-82
2023/10/15 21:53:37;;;;;;;;;;;;;;;;;;;;;
2023/10/15 21:59:29;;;;;;;;;;;;;;;;;;;;;
2023/10/15 22:05:02;;;;;;;;;;;;;;;;;;;;;
2023/10/15 22:10:57;;;;;;;12.60;4.30;;;;;;;6.51;97.45;100440.88;224154;1263;138816;-85
2023/10/15 22:16:56;;;;;;;;;;;;;;;;;;;;;
2023/10/15 22:23:00;;;;;;;7.70;2.50;;;;;;;6.60;97.51;100442.93;223645;1263;140033;-83
2023/10/15 22:29:06;;;;;;;9.80;2.60;;;;;;;6.62;97.60;100446.73;224174;1263;139228;-83
2023/10/15 22:35:01;;;;;;;9.00;2.40;;;;;;;6.63;98.02;100451.66;223716;1263;139949;-85
2023/10/15 22:40:54;;;;;;;;;;;;;;;;;;;;;
2023/10/15 22:46:56;;;;;;;9.00;2.30;;;;;;;6.65;98.16;100451.11;224022;1263;138472;-85
2023/10/15 22:52:57;;;;;;;5.80;2.20;;;;;;;6.68;98.24;100452.44;223517;1263;140692;-85
2023/10/15 22:58:58;;;;;;;8.30;2.20;;;;;;;6.72;98.78;100468.88;224113;1263;138713;-84
2023/10/15 23:04:48;;;;;;;6.30;1.80;;;;;;;6.78;98.93;100466.77;224069;1263;140075;-85
2023/10/15 23:10:42;;;;;;;;;;;;;;;;;;;;;
2023/10/15 23:16:46;;;;;;;9.90;2.00;;;;;;;6.89;99.30;100478.48;224213;1263;110513;-84
2023/10/15 23:22:41;;;;;;;6.50;1.80;;;;;;;6.98;99.63;100472.62;223856;1263;139586;-85
2023/10/15 23:34:31;;;;;;;11.30;2.20;;;;;;;7.13;99.49;100476.14;223857;1263;139667;-84
2023/10/15 23:40:35;;;;;;;5.20;1.60;;;;;;;7.22;99.43;100472.38;223784;1263;139766;-83
2023/10/15 23:46:26;;;;;;;8.30;1.70;;;;;;;7.31;99.50;100478.54;224186;1263;138438;-85
2023/10/15 23:51:40;;;;;;;5.80;1.50;;;;;;;7.37;99.17;100475.58;223653;1263;139656;-85
2023/10/15 23:57:37;;;;;;;14.10;4.60;;;;;;;7.44;99.02;100488.09;224589;1263;138347;-87
